Wetterdaten: Woche 21.04.08 - 27.04.08 (KW17)
Datum Zeit Temperatur Luftfeuchte Luftdruck Niederschlag Wind Richtung Sonnenschein Solar Taupunkt Windchill Windben
21.04.2008 00:00 13.0 C 63 % 998.7 hPa 0.0 l/m 0.2 km/h (0 Bft) N 0.00 h 0 W/m 6.1 C 13.0 C 1.0 km/h (0 Bft)
21.04.2008 01:00 12.3 C 65 % 997.9 hPa 0.0 l/m 0.7 km/h (0 Bft) NO 0.00 h 0 W/m 6.0 C 12.3 C 2.2 km/h (1 Bft)
21.04.2008 02:00 11.3 C 70 % 997.4 hPa 0.0 l/m 0.7 km/h (0 Bft) O 0.00 h 0 W/m 5.9 C 11.3 C 1.8 km/h (1 Bft)
21.04.2008 03:00 10.1 C 75 % 997.5 hPa 0.0 l/m 1.6 km/h (1 Bft) O 0.00 h 0 W/m 5.9 C 10.1 C 3.1 km/h (1 Bft)
21.04.2008 04:00 9.1 C 79 % 997.2 hPa 0.0 l/m 1.6 km/h (1 Bft) O 0.00 h 0 W/m 5.7 C 9.0 C 3.1 km/h (1 Bft)
21.04.2008 05:00 8.8 C 81 % 997.0 hPa 0.0 l/m 0.8 km/h (0 Bft) O 0.00 h 0 W/m 5.7 C 8.8 C 1.9 km/h (1 Bft)
21.04.2008 06:00 8.5 C 86 % 996.8 hPa 0.0 l/m 1.4 km/h (1 Bft) N 0.00 h 10 W/m 6.2 C 8.5 C 3.4 km/h (1 Bft)
21.04.2008 07:00 9.2 C 88 % 997.0 hPa 0.0 l/m 2.1 km/h (1 Bft) N 0.00 h 32 W/m 7.4 C 9.2 C 3.9 km/h (1 Bft)
21.04.2008 08:00 10.4 C 86 % 997.3 hPa 0.0 l/m 0.9 km/h (0 Bft) N 0.17 h 146 W/m 8.2 C 10.4 C 2.4 km/h (1 Bft)
21.04.2008 09:00 11.1 C 82 % 997.6 hPa 0.0 l/m 3.9 km/h (1 Bft) W-NW 0.00 h 129 W/m 8.1 C 11.1 C 6.4 km/h (2 Bft)
21.04.2008 10:00 11.2 C 81 % 997.8 hPa 0.0 l/m 3.3 km/h (1 Bft) W-NW 0.00 h 189 W/m 8.1 C 11.2 C 5.5 km/h (1 Bft)
21.04.2008 11:00 11.3 C 83 % 998.1 hPa 0.0 l/m 2.4 km/h (1 Bft) W-NW 0.00 h 188 W/m 8.5 C 11.3 C 4.1 km/h (1 Bft)
21.04.2008 12:00 10.6 C 90 % 998.6 hPa 1.2 l/m 3.7 km/h (1 Bft) W 0.00 h 124 W/m 9.1 C 10.6 C 6.2 km/h (2 Bft)
21.04.2008 13:00 10.0 C 94 % 998.5 hPa 2.0 l/m 4.4 km/h (1 Bft) W 0.00 h 59 W/m 9.1 C 9.9 C 7.3 km/h (2 Bft)
21.04.2008 14:00 9.9 C 96 % 998.5 hPa 2.4 l/m 5.0 km/h (1 Bft) W 0.00 h 77 W/m 9.4 C 9.6 C 8.4 km/h (2 Bft)
21.04.2008 15:00 10.1 C 97 % 998.8 hPa 1.6 l/m 9.7 km/h (2 Bft) W 0.00 h 74 W/m 9.6 C 9.7 C 15.9 km/h (3 Bft)
21.04.2008 16:00 9.4 C 95 % 999.1 hPa 1.2 l/m 18.2 km/h (3 Bft) W 0.00 h 67 W/m 8.6 C 6.9 C 27.7 km/h (4 Bft)
21.04.2008 17:00 9.1 C 94 % 999.6 hPa 1.2 l/m 13.7 km/h (3 Bft) W 0.00 h 53 W/m 8.2 C 7.1 C 21.4 km/h (4 Bft)
21.04.2008 18:00 9.1 C 94 % 1000.2 hPa 1.0 l/m 9.7 km/h (2 Bft) W 0.00 h 42 W/m 8.2 C 7.7 C 15.6 km/h (3 Bft)
21.04.2008 19:00 8.9 C 95 % 1000.8 hPa 0.4 l/m 5.2 km/h (1 Bft) W-SW 0.00 h 14 W/m 8.1 C 8.4 C 9.0 km/h (2 Bft)
21.04.2008 20:00 8.8 C 97 % 1001.2 hPa 1.0 l/m 2.5 km/h (1 Bft) S-SW 0.00 h 5 W/m 8.3 C 8.8 C 4.6 km/h (1 Bft)
21.04.2008 21:00 8.6 C 97 % 1001.4 hPa 0.2 l/m 3.4 km/h (1 Bft) S-SW 0.00 h 0 W/m 8.2 C 8.5 C 6.4 km/h (2 Bft)
21.04.2008 22:00 8.7 C 98 % 1001.6 hPa 0.4 l/m 2.2 km/h (1 Bft) S 0.00 h 0 W/m 8.3 C 8.6 C 4.8 km/h (1 Bft)
21.04.2008 23:00 8.7 C 98 % 1001.7 hPa 0.4 l/m 3.0 km/h (1 Bft) W-SW 0.00 h 0 W/m 8.4 C 8.5 C 5.6 km/h (1 Bft)
22.04.2008 00:00 8.7 C 98 % 1001.8 hPa 0.4 l/m 2.8 km/h (1 Bft) SW 0.00 h 0 W/m 8.4 C 8.6 C 5.7 km/h (1 Bft)
22.04.2008 01:00 8.8 C 99 % 1001.8 hPa 0.4 l/m 6.4 km/h (2 Bft) W 0.00 h 0 W/m 8.5 C 8.0 C 10.7 km/h (2 Bft)
22.04.2008 02:00 8.7 C 97 % 1001.8 hPa 1.2 l/m 8.7 km/h (2 Bft) W 0.00 h 0 W/m 8.3 C 7.4 C 13.9 km/h (3 Bft)
22.04.2008 03:00 8.7 C 97 % 1001.8 hPa 1.8 l/m 10.6 km/h (2 Bft) W 0.00 h 0 W/m 8.3 C 7.1 C 16.9 km/h (3 Bft)
22.04.2008 04:00 8.7 C 97 % 1001.7 hPa 2.0 l/m 4.1 km/h (1 Bft) W-SW 0.00 h 0 W/m 8.3 C 8.4 C 7.4 km/h (2 Bft)
22.04.2008 05:00 8.7 C 98 % 1001.9 hPa 1.6 l/m 8.6 km/h (2 Bft) W 0.00 h 0 W/m 8.4 C 7.5 C 14.2 km/h (3 Bft)
22.04.2008 06:00 8.9 C 97 % 1001.9 hPa 1.8 l/m 12.7 km/h (3 Bft) W 0.00 h 0 W/m 8.4 C 6.9 C 19.8 km/h (4 Bft)
22.04.2008 07:00 8.9 C 97 % 1002.2 hPa 1.6 l/m 13.4 km/h (3 Bft) W 0.00 h 9 W/m 8.5 C 6.8 C 21.6 km/h (4 Bft)
22.04.2008 08:00 9.0 C 96 % 1002.6 hPa 1.0 l/m 15.1 km/h (3 Bft) W 0.00 h 22 W/m 8.5 C 6.7 C 23.6 km/h (4 Bft)
22.04.2008 09:00 9.2 C 96 % 1003.1 hPa 0.4 l/m 15.4 km/h (3 Bft) W 0.00 h 26 W/m 8.6 C 6.9 C 23.6 km/h (4 Bft)
22.04.2008 10:00 9.2 C 96 % 1004.1 hPa 0.0 l/m 12.7 km/h (3 Bft) W 0.00 h 29 W/m 8.6 C 7.3 C 19.9 km/h (4 Bft)
22.04.2008 11:00 9.2 C 96 % 1005.0 hPa 0.4 l/m 10.7 km/h (2 Bft) W 0.00 h 24 W/m 8.6 C 7.6 C 17.4 km/h (3 Bft)
22.04.2008 12:00 9.4 C 96 % 1005.8 hPa 2.0 l/m 6.8 km/h (2 Bft) W 0.00 h 42 W/m 8.8 C 8.6 C 11.1 km/h (2 Bft)
22.04.2008 13:00 9.6 C 98 % 1006.4 hPa 3.0 l/m 3.6 km/h (1 Bft) W-SW 0.00 h 66 W/m 9.3 C 9.5 C 6.6 km/h (2 Bft)
22.04.2008 14:00 9.7 C 98 % 1007.0 hPa 1.6 l/m 6.3 km/h (2 Bft) W-SW 0.00 h 94 W/m 9.4 C 9.1 C 10.8 km/h (2 Bft)
22.04.2008 15:00 9.8 C 97 % 1007.7 hPa 0.8 l/m 7.9 km/h (2 Bft) W 0.00 h 78 W/m 9.3 C 8.8 C 12.5 km/h (3 Bft)
22.04.2008 16:00 9.7 C 97 % 1008.2 hPa 0.2 l/m 7.6 km/h (2 Bft) W 0.00 h 52 W/m 9.2 C 8.8 C 12.3 km/h (3 Bft)
22.04.2008 17:00 9.7 C 97 % 1008.9 hPa 0.2 l/m 7.6 km/h (2 Bft) W 0.00 h 23 W/m 9.2 C 8.8 C 12.8 km/h (3 Bft)
22.04.2008 18:00 9.6 C 97 % 1009.6 hPa 1.6 l/m 3.3 km/h (1 Bft) W 0.00 h 10 W/m 9.2 C 9.4 C 6.2 km/h (2 Bft)
22.04.2008 19:00 9.6 C 97 % 1010.3 hPa 0.4 l/m 1.1 km/h (1 Bft) O-SO 0.00 h 5 W/m 9.2 C 9.6 C 2.5 km/h (1 Bft)
22.04.2008 20:00 9.6 C 97 % 1011.0 hPa 0.4 l/m 0.9 km/h (0 Bft) S-SO 0.00 h 0 W/m 9.1 C 9.6 C 2.4 km/h (1 Bft)
22.04.2008 21:00 9.5 C 97 % 1012.0 hPa 0.2 l/m 2.3 km/h (1 Bft) S-SO 0.00 h 0 W/m 9.1 C 9.5 C 4.5 km/h (1 Bft)
22.04.2008 22:00 9.3 C 97 % 1012.5 hPa 0.0 l/m 2.4 km/h (1 Bft) S-SO 0.00 h 0 W/m 8.9 C 9.3 C 5.0 km/h (1 Bft)
22.04.2008 23:00 9.3 C 98 % 1012.8 hPa 0.0 l/m 4.5 km/h (1 Bft) S-SO 0.00 h 0 W/m 9.0 C 9.0 C 7.9 km/h (2 Bft)
23.04.2008 00:00 9.3 C 97 % 1013.3 hPa 0.0 l/m 3.5 km/h (1 Bft) S 0.00 h 0 W/m 8.9 C 9.2 C 6.4 km/h (2 Bft)
23.04.2008 01:00 9.4 C 97 % 1013.7 hPa 0.0 l/m 2.3 km/h (1 Bft) S 0.00 h 0 W/m 8.9 C 9.4 C 5.3 km/h (1 Bft)
23.04.2008 02:00 9.4 C 97 % 1013.7 hPa 0.0 l/m 1.8 km/h (1 Bft) S-SO 0.00 h 0 W/m 8.9 C 9.3 C 4.4 km/h (1 Bft)
23.04.2008 03:00 9.3 C 97 % 1014.0 hPa 0.0 l/m 3.9 km/h (1 Bft) S-SO 0.00 h 0 W/m 8.8 C 9.1 C 7.2 km/h (2 Bft)
23.04.2008 04:00 9.2 C 97 % 1014.3 hPa 2.4 l/m 3.9 km/h (1 Bft) S-SO 0.00 h 0 W/m 8.8 C 9.0 C 6.7 km/h (2 Bft)
23.04.2008 05:00 9.2 C 97 % 1014.7 hPa 2.4 l/m 1.5 km/h (1 Bft) S-SO 0.00 h 0 W/m 8.7 C 9.2 C 3.2 km/h (1 Bft)
23.04.2008 06:00 9.2 C 98 % 1015.0 hPa 0.8 l/m 2.7 km/h (1 Bft) S-SO 0.00 h 0 W/m 8.9 C 9.1 C 5.1 km/h (1 Bft)
23.04.2008 07:00 9.2 C 98 % 1015.6 hPa 0.2 l/m 1.6 km/h (1 Bft) S 0.00 h 14 W/m 8.9 C 9.2 C 4.1 km/h (1 Bft)
23.04.2008 08:00 9.3 C 98 % 1016.3 hPa 0.0 l/m 2.0 km/h (1 Bft) S 0.00 h 24 W/m 9.0 C 9.2 C 4.6 km/h (1 Bft)
23.04.2008 09:00 9.6 C 98 % 1016.9 hPa 0.0 l/m 2.4 km/h (1 Bft) S 0.00 h 81 W/m 9.4 C 9.6 C 5.2 km/h (1 Bft)
23.04.2008 10:00 10.8 C 97 % 1017.3 hPa 0.0 l/m 2.5 km/h (1 Bft) S 0.02 h 227 W/m 10.2 C 10.8 C 5.7 km/h (1 Bft)
23.04.2008 11:00 12.0 C 92 % 1017.7 hPa 0.0 l/m 4.3 km/h (1 Bft) SW 0.42 h 403 W/m 10.7 C 12.0 C 7.8 km/h (2 Bft)
23.04.2008 12:00 11.5 C 91 % 1018.2 hPa 0.2 l/m 4.2 km/h (1 Bft) S-SW 0.00 h 183 W/m 10.1 C 11.5 C 8.0 km/h (2 Bft)
23.04.2008 13:00 11.5 C 93 % 1018.4 hPa 0.4 l/m 2.9 km/h (1 Bft) S 0.00 h 233 W/m 10.5 C 11.5 C 6.0 km/h (2 Bft)
23.04.2008 14:00 12.7 C 88 % 1018.5 hPa 0.0 l/m 2.5 km/h (1 Bft) S-SO 0.05 h 275 W/m 10.7 C 12.7 C 5.0 km/h (1 Bft)
23.04.2008 15:00 12.9 C 88 % 1018.4 hPa 0.8 l/m 2.1 km/h (1 Bft) O-SO 0.08 h 139 W/m 10.9 C 12.9 C 4.1 km/h (1 Bft)
23.04.2008 16:00 11.5 C 93 % 1019.0 hPa 4.4 l/m 3.7 km/h (1 Bft) SO 0.00 h 52 W/m 10.4 C 11.5 C 5.9 km/h (2 Bft)
23.04.2008 17:00 11.0 C 94 % 1019.5 hPa 1.4 l/m 4.2 km/h (1 Bft) SO 0.00 h 47 W/m 10.0 C 11.0 C 6.3 km/h (2 Bft)
23.04.2008 18:00 11.6 C 94 % 1019.6 hPa 0.0 l/m 1.4 km/h (1 Bft) S-SO 0.00 h 82 W/m 10.6 C 11.6 C 3.0 km/h (1 Bft)
23.04.2008 19:00 11.3 C 96 % 1020.0 hPa 0.0 l/m 0.6 km/h (0 Bft) S-SO 0.00 h 12 W/m 10.6 C 11.3 C 1.8 km/h (1 Bft)
23.04.2008 20:00 11.0 C 96 % 1020.5 hPa 0.0 l/m 2.4 km/h (1 Bft) SO 0.00 h 0 W/m 10.3 C 11.0 C 4.1 km/h (1 Bft)
23.04.2008 21:00 10.4 C 96 % 1021.1 hPa 0.0 l/m 0.3 km/h (0 Bft) SO 0.00 h 0 W/m 9.8 C 10.4 C 1.0 km/h (0 Bft)
23.04.2008 22:00 10.2 C 96 % 1021.3 hPa 0.0 l/m 0.7 km/h (0 Bft) SO 0.00 h 0 W/m 9.6 C 10.2 C 1.9 km/h (1 Bft)
23.04.2008 23:00 10.0 C 96 % 1021.7 hPa 0.0 l/m 2.0 km/h (1 Bft) SO 0.00 h 0 W/m 9.4 C 9.9 C 2.9 km/h (1 Bft)
24.04.2008 00:00 9.8 C 96 % 1022.0 hPa 0.0 l/m 1.0 km/h (0 Bft) SO 0.00 h 0 W/m 9.2 C 9.8 C 1.7 km/h (1 Bft)
24.04.2008 01:00 9.4 C 96 % 1022.3 hPa 0.0 l/m 0.6 km/h (0 Bft) O-SO 0.00 h 0 W/m 8.9 C 9.4 C 1.0 km/h (0 Bft)
24.04.2008 02:00 9.2 C 97 % 1022.1 hPa 0.0 l/m 1.0 km/h (0 Bft) O-SO 0.00 h 0 W/m 8.8 C 9.2 C 1.8 km/h (1 Bft)
24.04.2008 03:00 9.2 C 98 % 1022.2 hPa 0.0 l/m 0.0 km/h (0 Bft) N 0.00 h 0 W/m 8.9 C 9.2 C 0.0 km/h (0 Bft)
24.04.2008 04:00 9.3 C 98 % 1022.3 hPa 0.2 l/m 1.4 km/h (1 Bft) O-SO 0.00 h 0 W/m 9.0 C 9.3 C 2.5 km/h (1 Bft)
24.04.2008 05:00 9.4 C 99 % 1022.5 hPa 0.0 l/m 1.4 km/h (1 Bft) O-SO 0.00 h 0 W/m 9.2 C 9.4 C 2.7 km/h (1 Bft)
24.04.2008 06:00 9.6 C 99 % 1022.8 hPa 0.0 l/m 0.8 km/h (0 Bft) S-SO 0.00 h 8 W/m 9.4 C 9.6 C 1.9 km/h (1 Bft)
24.04.2008 07:00 9.7 C 99 % 1023.2 hPa 0.0 l/m 0.0 km/h (0 Bft) N 0.00 h 42 W/m 9.6 C 9.7 C 0.1 km/h (0 Bft)
24.04.2008 08:00 10.1 C 99 % 1023.8 hPa 0.0 l/m 0.8 km/h (0 Bft) S-SO 0.00 h 75 W/m 10.0 C 10.1 C 2.1 km/h (1 Bft)
24.04.2008 09:00 11.2 C 96 % 1024.2 hPa 0.0 l/m 1.7 km/h (1 Bft) S 0.32 h 231 W/m 10.5 C 11.2 C 3.9 km/h (1 Bft)
24.04.2008 10:00 12.9 C 84 % 1024.3 hPa 0.0 l/m 1.7 km/h (1 Bft) SW 0.40 h 363 W/m 10.2 C 12.9 C 3.7 km/h (1 Bft)
24.04.2008 11:00 14.6 C 75 % 1024.3 hPa 0.0 l/m 3.0 km/h (1 Bft) SW 0.53 h 501 W/m 10.3 C 14.6 C 5.5 km/h (1 Bft)
24.04.2008 12:00 15.8 C 65 % 1024.2 hPa 0.0 l/m 6.0 km/h (2 Bft) W 0.28 h 416 W/m 9.1 C 15.8 C 9.8 km/h (2 Bft)
24.04.2008 13:00 17.0 C 58 % 1023.8 hPa 0.0 l/m 6.5 km/h (2 Bft) W 0.83 h 630 W/m 8.8 C 17.0 C 10.5 km/h (2 Bft)
24.04.2008 14:00 18.0 C 50 % 1023.3 hPa 0.0 l/m 8.2 km/h (2 Bft) W 0.63 h 636 W/m 7.4 C 18.0 C 13.1 km/h (3 Bft)
24.04.2008 15:00 17.2 C 54 % 1023.4 hPa 0.0 l/m 11.5 km/h (2 Bft) W-NW 0.57 h 529 W/m 7.9 C 17.2 C 18.0 km/h (3 Bft)
24.04.2008 16:00 18.0 C 51 % 1023.0 hPa 0.0 l/m 5.9 km/h (2 Bft) W-NW 0.32 h 378 W/m 7.7 C 18.0 C 9.5 km/h (2 Bft)
24.04.2008 17:00 18.1 C 50 % 1022.9 hPa 0.0 l/m 8.6 km/h (2 Bft) W 0.70 h 355 W/m 7.6 C 18.1 C 13.5 km/h (3 Bft)
24.04.2008 18:00 18.2 C 52 % 1023.0 hPa 0.0 l/m 8.8 km/h (2 Bft) W 0.77 h 239 W/m 8.2 C 18.2 C 13.5 km/h (3 Bft)
24.04.2008 19:00 16.8 C 52 % 1023.5 hPa 0.0 l/m 11.0 km/h (2 Bft) W 0.67 h 94 W/m 6.9 C 16.8 C 17.1 km/h (3 Bft)
24.04.2008 20:00 15.2 C 58 % 1024.3 hPa 0.0 l/m 7.4 km/h (2 Bft) W-NW 0.05 h 14 W/m 6.9 C 15.2 C 11.5 km/h (2 Bft)
24.04.2008 21:00 13.9 C 64 % 1025.1 hPa 0.0 l/m 1.7 km/h (1 Bft) W-NW 0.00 h 0 W/m 7.2 C 13.9 C 3.4 km/h (1 Bft)
24.04.2008 22:00 13.0 C 69 % 1025.4 hPa 0.0 l/m 1.2 km/h (1 Bft) NO 0.00 h 0 W/m 7.4 C 13.0 C 3.1 km/h (1 Bft)
24.04.2008 23:00 11.3 C 77 % 1025.8 hPa 0.0 l/m 1.6 km/h (1 Bft) O 0.00 h 0 W/m 7.4 C 11.3 C 2.9 km/h (1 Bft)
25.04.2008 00:00 10.5 C 80 % 1026.3 hPa 0.0 l/m 1.6 km/h (1 Bft) O 0.00 h 0 W/m 7.3 C 10.5 C 2.5 km/h (1 Bft)
25.04.2008 01:00 9.6 C 85 % 1026.2 hPa 0.0 l/m 0.4 km/h (0 Bft) O 0.00 h 0 W/m 7.3 C 9.6 C 1.1 km/h (1 Bft)
25.04.2008 02:00 9.3 C 89 % 1026.5 hPa 0.0 l/m 0.3 km/h (0 Bft) O-SO 0.00 h 0 W/m 7.6 C 9.3 C 1.0 km/h (0 Bft)
25.04.2008 03:00 8.8 C 91 % 1026.6 hPa 0.0 l/m 1.2 km/h (1 Bft) O-SO 0.00 h 0 W/m 7.4 C 8.7 C 2.1 km/h (1 Bft)
25.04.2008 04:00 8.5 C 90 % 1026.5 hPa 0.0 l/m 0.1 km/h (0 Bft) O-SO 0.00 h 0 W/m 6.9 C 8.5 C 0.2 km/h (0 Bft)
25.04.2008 05:00 8.6 C 89 % 1026.8 hPa 0.0 l/m 1.1 km/h (1 Bft) O-SO 0.00 h 0 W/m 6.9 C 8.5 C 2.5 km/h (1 Bft)
25.04.2008 06:00 10.3 C 78 % 1027.2 hPa 0.0 l/m 2.1 km/h (1 Bft) W 0.00 h 5 W/m 6.6 C 10.3 C 4.1 km/h (1 Bft)
25.04.2008 07:00 10.7 C 77 % 1027.8 hPa 0.0 l/m 4.5 km/h (1 Bft) W 0.00 h 19 W/m 6.9 C 10.7 C 7.4 km/h (2 Bft)
25.04.2008 08:00 10.4 C 82 % 1028.5 hPa 0.0 l/m 6.2 km/h (2 Bft) W 0.00 h 62 W/m 7.6 C 10.4 C 9.8 km/h (2 Bft)
25.04.2008 09:00 10.9 C 81 % 1029.0 hPa 0.2 l/m 6.3 km/h (2 Bft) W 0.08 h 169 W/m 7.8 C 10.9 C 10.0 km/h (2 Bft)
25.04.2008 10:00 12.6 C 73 % 1029.1 hPa 0.0 l/m 6.8 km/h (2 Bft) W-SW 0.72 h 439 W/m 8.0 C 12.6 C 10.8 km/h (2 Bft)
25.04.2008 11:00 14.1 C 64 % 1029.0 hPa 0.0 l/m 11.2 km/h (2 Bft) W 0.63 h 536 W/m 7.3 C 14.1 C 17.5 km/h (3 Bft)
25.04.2008 12:00 14.8 C 56 % 1028.6 hPa 0.0 l/m 12.1 km/h (2 Bft) W 0.58 h 511 W/m 6.2 C 14.8 C 18.9 km/h (3 Bft)
25.04.2008 13:00 15.1 C 55 % 1028.6 hPa 0.0 l/m 10.2 km/h (2 Bft) W 0.48 h 472 W/m 6.1 C 15.1 C 16.4 km/h (3 Bft)
25.04.2008 14:00 14.3 C 58 % 1028.6 hPa 0.0 l/m 9.9 km/h (2 Bft) N-NW 0.00 h 167 W/m 6.0 C 14.3 C 15.5 km/h (3 Bft)
25.04.2008 15:00 15.5 C 58 % 1028.5 hPa 0.0 l/m 5.0 km/h (1 Bft) N-NW 0.52 h 525 W/m 7.1 C 15.5 C 8.3 km/h (2 Bft)
25.04.2008 16:00 16.1 C 51 % 1028.0 hPa 0.0 l/m 8.7 km/h (2 Bft) W-NW 0.55 h 399 W/m 5.9 C 16.1 C 13.9 km/h (3 Bft)
25.04.2008 17:00 16.9 C 47 % 1027.5 hPa 0.0 l/m 9.1 km/h (2 Bft) W-NW 1.00 h 389 W/m 5.5 C 16.9 C 14.2 km/h (3 Bft)
25.04.2008 18:00 16.6 C 47 % 1027.3 hPa 0.0 l/m 8.8 km/h (2 Bft) W-NW 0.90 h 211 W/m 5.2 C 16.6 C 13.0 km/h (3 Bft)
25.04.2008 19:00 15.6 C 51 % 1027.3 hPa 0.0 l/m 4.5 km/h (1 Bft) W 0.07 h 77 W/m 5.3 C 15.6 C 6.9 km/h (2 Bft)
25.04.2008 20:00 13.6 C 60 % 1027.6 hPa 0.0 l/m 0.7 km/h (0 Bft) W-NW 0.02 h 16 W/m 6.0 C 13.6 C 2.1 km/h (1 Bft)
25.04.2008 21:00 11.3 C 71 % 1028.5 hPa 0.0 l/m 0.8 km/h (0 Bft) NO 0.00 h 0 W/m 6.1 C 11.3 C 1.7 km/h (1 Bft)
25.04.2008 22:00 9.7 C 78 % 1028.7 hPa 0.0 l/m 2.8 km/h (1 Bft) O 0.00 h 0 W/m 6.0 C 9.6 C 4.3 km/h (1 Bft)
25.04.2008 23:00 8.3 C 83 % 1028.9 hPa 0.0 l/m 1.4 km/h (1 Bft) O-SO 0.00 h 0 W/m 5.6 C 8.2 C 2.1 km/h (1 Bft)
26.04.2008 00:00 7.6 C 85 % 1028.8 hPa 0.0 l/m 0.5 km/h (0 Bft) O-SO 0.00 h 0 W/m 5.3 C 7.6 C 1.1 km/h (1 Bft)
26.04.2008 01:00 6.9 C 88 % 1028.8 hPa 0.0 l/m 0.6 km/h (0 Bft) O-SO 0.00 h 0 W/m 5.0 C 6.9 C 1.5 km/h (1 Bft)
26.04.2008 02:00 6.7 C 89 % 1028.9 hPa 0.0 l/m 0.7 km/h (0 Bft) O-SO 0.00 h 0 W/m 5.0 C 6.7 C 1.5 km/h (1 Bft)
26.04.2008 03:00 6.2 C 89 % 1028.7 hPa 0.0 l/m 0.5 km/h (0 Bft) O-SO 0.00 h 0 W/m 4.5 C 6.2 C 1.3 km/h (1 Bft)
26.04.2008 04:00 5.7 C 90 % 1028.4 hPa 0.0 l/m 0.5 km/h (0 Bft) O-SO 0.00 h 0 W/m 4.3 C 5.7 C 0.9 km/h (0 Bft)
26.04.2008 05:00 5.0 C 92 % 1028.3 hPa 0.0 l/m 0.7 km/h (0 Bft) O-SO 0.00 h 0 W/m 3.9 C 5.0 C 1.3 km/h (1 Bft)
26.04.2008 06:00 4.6 C 94 % 1028.3 hPa 0.0 l/m 0.4 km/h (0 Bft) O-SO 0.10 h 19 W/m 3.8 C 4.6 C 1.1 km/h (0 Bft)
26.04.2008 07:00 5.1 C 94 % 1028.5 hPa 0.0 l/m 0.1 km/h (0 Bft) O-SO 0.22 h 75 W/m 4.2 C 5.1 C 0.8 km/h (0 Bft)
26.04.2008 08:00 7.3 C 86 % 1028.4 hPa 0.0 l/m 1.2 km/h (1 Bft) O-SO 0.92 h 248 W/m 5.2 C 7.3 C 2.6 km/h (1 Bft)
26.04.2008 09:00 9.9 C 74 % 1028.3 hPa 0.0 l/m 1.3 km/h (1 Bft) O-NO 1.00 h 446 W/m 5.5 C 9.9 C 2.9 km/h (1 Bft)
26.04.2008 10:00 12.6 C 64 % 1028.0 hPa 0.0 l/m 2.2 km/h (1 Bft) NW 1.00 h 557 W/m 6.0 C 12.6 C 4.1 km/h (1 Bft)
26.04.2008 11:00 15.1 C 57 % 1027.7 hPa 0.0 l/m 5.7 km/h (1 Bft) O-SO 1.00 h 688 W/m 6.7 C 15.1 C 9.9 km/h (2 Bft)
26.04.2008 12:00 16.4 C 50 % 1027.2 hPa 0.0 l/m 9.0 km/h (2 Bft) O-SO 1.00 h 817 W/m 5.9 C 16.4 C 14.9 km/h (3 Bft)
26.04.2008 13:00 17.4 C 44 % 1026.7 hPa 0.0 l/m 7.9 km/h (2 Bft) O-SO 1.00 h 822 W/m 4.8 C 17.4 C 13.5 km/h (3 Bft)
26.04.2008 14:00 17.9 C 39 % 1026.4 hPa 0.0 l/m 9.9 km/h (2 Bft) O-SO 1.00 h 794 W/m 3.7 C 17.9 C 15.8 km/h (3 Bft)
26.04.2008 15:00 18.3 C 34 % 1026.0 hPa 0.0 l/m 8.9 km/h (2 Bft) O-SO 1.00 h 719 W/m 2.0 C 18.3 C 14.5 km/h (3 Bft)
26.04.2008 16:00 18.5 C 33 % 1025.6 hPa 0.0 l/m 7.7 km/h (2 Bft) O-SO 1.00 h 598 W/m 2.1 C 18.5 C 13.3 km/h (3 Bft)
26.04.2008 17:00 18.2 C 37 % 1025.5 hPa 0.0 l/m 8.5 km/h (2 Bft) O-SO 1.00 h 435 W/m 3.4 C 18.2 C 13.9 km/h (3 Bft)
26.04.2008 18:00 17.8 C 37 % 1025.2 hPa 0.0 l/m 5.8 km/h (2 Bft) O-SO 0.98 h 259 W/m 3.0 C 17.8 C 10.6 km/h (2 Bft)
26.04.2008 19:00 16.7 C 39 % 1025.0 hPa 0.0 l/m 4.7 km/h (1 Bft) O-SO 0.47 h 85 W/m 2.5 C 16.7 C 8.5 km/h (2 Bft)
26.04.2008 20:00 14.4 C 47 % 1025.0 hPa 0.0 l/m 0.4 km/h (0 Bft) O 0.00 h 12 W/m 3.2 C 14.4 C 1.4 km/h (1 Bft)
26.04.2008 21:00 12.5 C 55 % 1025.2 hPa 0.0 l/m 1.2 km/h (1 Bft) O 0.00 h 0 W/m 3.7 C 12.5 C 2.7 km/h (1 Bft)
26.04.2008 22:00 10.8 C 66 % 1025.2 hPa 0.0 l/m 0.0 km/h (0 Bft) O 0.00 h 0 W/m 4.8 C 10.8 C 0.3 km/h (0 Bft)
26.04.2008 23:00 9.9 C 70 % 1024.8 hPa 0.0 l/m 0.3 km/h (0 Bft) N 0.00 h 0 W/m 4.7 C 9.9 C 1.2 km/h (1 Bft)
27.04.2008 00:00 9.1 C 72 % 1024.7 hPa 0.0 l/m 0.5 km/h (0 Bft) N-NO 0.00 h 0 W/m 4.3 C 9.1 C 1.7 km/h (1 Bft)
27.04.2008 01:00 8.0 C 76 % 1024.4 hPa 0.0 l/m 1.1 km/h (1 Bft) N-NO 0.00 h 0 W/m 4.1 C 8.0 C 2.7 km/h (1 Bft)
27.04.2008 02:00 7.3 C 78 % 1024.1 hPa 0.0 l/m 1.6 km/h (1 Bft) NO 0.00 h 0 W/m 3.7 C 7.3 C 2.7 km/h (1 Bft)
27.04.2008 03:00 6.4 C 82 % 1023.7 hPa 0.0 l/m 0.6 km/h (0 Bft) NO 0.00 h 0 W/m 3.6 C 6.3 C 1.6 km/h (1 Bft)
27.04.2008 04:00 5.4 C 86 % 1023.6 hPa 0.0 l/m 2.6 km/h (1 Bft) NO 0.00 h 0 W/m 3.2 C 5.3 C 3.8 km/h (1 Bft)
27.04.2008 05:00 5.0 C 87 % 1023.3 hPa 0.0 l/m 0.2 km/h (0 Bft) NO 0.00 h 0 W/m 3.1 C 5.0 C 1.0 km/h (0 Bft)
27.04.2008 06:00 4.4 C 90 % 1023.2 hPa 0.0 l/m 0.1 km/h (0 Bft) NO 0.02 h 15 W/m 3.0 C 4.4 C 0.4 km/h (0 Bft)
27.04.2008 07:00 5.0 C 91 % 1023.4 hPa 0.0 l/m 0.3 km/h (0 Bft) NO 0.28 h 77 W/m 3.7 C 5.0 C 0.6 km/h (0 Bft)
27.04.2008 08:00 7.9 C 81 % 1023.3 hPa 0.0 l/m 0.2 km/h (0 Bft) NO 1.00 h 299 W/m 4.8 C 7.9 C 1.1 km/h (1 Bft)
27.04.2008 09:00 10.8 C 70 % 1023.0 hPa 0.0 l/m 0.9 km/h (0 Bft) NO 1.00 h 469 W/m 5.5 C 10.8 C 2.5 km/h (1 Bft)
27.04.2008 10:00 13.8 C 57 % 1022.5 hPa 0.0 l/m 1.3 km/h (1 Bft) O-NO 1.00 h 603 W/m 5.5 C 13.8 C 3.0 km/h (1 Bft)
27.04.2008 11:00 15.6 C 54 % 1021.9 hPa 0.0 l/m 2.5 km/h (1 Bft) W-NW 1.00 h 722 W/m 6.2 C 15.6 C 4.6 km/h (1 Bft)
27.04.2008 12:00 17.4 C 52 % 1020.9 hPa 0.0 l/m 2.5 km/h (1 Bft) SO 1.00 h 792 W/m 7.3 C 17.4 C 4.9 km/h (1 Bft)
27.04.2008 13:00 19.0 C 45 % 1019.8 hPa 0.0 l/m 2.3 km/h (1 Bft) W-NW 1.00 h 766 W/m 6.9 C 19.0 C 5.0 km/h (1 Bft)
27.04.2008 14:00 20.7 C 40 % 1018.8 hPa 0.0 l/m 3.7 km/h (1 Bft) W-NW 0.98 h 752 W/m 6.5 C 20.7 C 6.4 km/h (2 Bft)
27.04.2008 15:00 20.8 C 41 % 1018.0 hPa 0.0 l/m 4.1 km/h (1 Bft) SO 1.00 h 553 W/m 7.1 C 20.8 C 7.2 km/h (2 Bft)
27.04.2008 16:00 21.1 C 43 % 1017.3 hPa 0.0 l/m 3.6 km/h (1 Bft) S-SO 1.00 h 424 W/m 7.8 C 21.1 C 6.4 km/h (2 Bft)
27.04.2008 17:00 20.6 C 44 % 1016.9 hPa 0.0 l/m 2.2 km/h (1 Bft) SO 0.70 h 304 W/m 8.0 C 20.6 C 4.0 km/h (1 Bft)
27.04.2008 18:00 20.2 C 43 % 1016.4 hPa 0.0 l/m 0.5 km/h (0 Bft) SO 0.42 h 185 W/m 7.3 C 20.2 C 1.2 km/h (1 Bft)
27.04.2008 19:00 19.6 C 49 % 1015.7 hPa 0.0 l/m 0.5 km/h (0 Bft) SO 0.33 h 83 W/m 8.6 C 19.6 C 1.2 km/h (1 Bft)
27.04.2008 20:00 17.5 C 57 % 1015.3 hPa 0.0 l/m 3.3 km/h (1 Bft) SO 0.18 h 21 W/m 8.9 C 17.5 C 4.8 km/h (1 Bft)
27.04.2008 21:00 15.1 C 71 % 1015.2 hPa 0.0 l/m 1.9 km/h (1 Bft) O-SO 0.00 h 0 W/m 9.8 C 15.1 C 3.1 km/h (1 Bft)
27.04.2008 22:00 13.3 C 78 % 1015.3 hPa 0.0 l/m 2.1 km/h (1 Bft) O-SO 0.00 h 0 W/m 9.5 C 13.3 C 3.5 km/h (1 Bft)
27.04.2008 23:00 12.0 C 82 % 1014.9 hPa 0.0 l/m 0.5 km/h (0 Bft) O-SO 0.00 h 0 W/m 9.1 C 12.0 C 1.2 km/h (1 Bft)
Min-Datum _ 27.04.08 26.04.08 21.04.08 - 21.04.08 - - - 26.04.08 26.04.08 21.04.08
_ Min-Zeit 06:27 15:40 06:00 - 00:00 - - - 16:18 05:25 00:00
Minimum _ 4.1 C 29 % 996.7 hPa - 0.0 km/h (0 Bft) - - - -0.0 C 3.9 C 0.0 km/h (0 Bft)
Max-Datum _ 27.04.08 22.04.08 25.04.08 23.04.08 21.04.08 - 21.04.08 24.04.08 24.04.08 27.04.08 21.04.08
_ Max-Zeit 14:43 14:10 09:30 16:32 15:57 - 08:14 13:37 11:09 14:42 16:02
Maximum _ 21.6 C 100 % 1029.2 hPa 4.4 l/m 27.8 km/h
W (4 Bft)
- 0.02 h 1065 W/m 11.7 C 21.6 C 40.0 km/h
W (6 Bft)
Durchschnitt _ 11.4 C 79 % 1017.2 hPa #49.4 l/m 3.9 km/h (1 Bft) W #34:57 h 244 W/m 7.4 C 11.2 C 6.7 km/h (2 Bft)
© Kaiko 2008